Covelo, California
Current Conditions -  °F | °C
As of 2:56 PM on Thursday 23 Oct 2014 (Local Time) from KUKI Reporting Station
Overcast Overcast  
Wind Chill: 64°   Ceiling: 4700
Heat Index: 64°   Visibility: 10mi
Dew Point: 59°   Wind: 3mph
Humidity: 84%   Direction: 150°SSE
Pressure: 30.02"   Gusts: NA
Location:  39.79°N, 123.25°W
Report Text: KUKI 232156Z AUTO 15003KT 10SM FEW030 BKN047 OVC060 18/15 A3002 RMK AO2 RAB2059E08B19E37 SLP160 P0000 T01780150
Loading
Personal Weather Stations






























Interactive Weather Map
Tropical Storm Tracking
New forecast layout! Learn more

10-Day Weather Forecast

Advertisements
Track Severe Weather on mobile